createdAt,value
2018-07-26T00:02:23.429Z,7.83
2018-07-26T00:04:51.484Z,7.33
2018-07-26T00:07:19.339Z,7.97
2018-07-26T00:09:47.008Z,7.90
2018-07-26T00:12:14.705Z,7.37
2018-07-26T00:14:42.702Z,8.10
2018-07-26T00:17:10.351Z,8.63
2018-07-26T00:19:38.062Z,7.70
2018-07-26T00:22:06.191Z,8.47
2018-07-26T00:24:33.889Z,7.10
2018-07-26T00:27:02.039Z,9.63
2018-07-26T00:29:29.669Z,7.90
2018-07-26T00:31:57.549Z,8.20
2018-07-26T00:34:25.834Z,8.80
2018-07-26T00:36:53.601Z,8.63
2018-07-26T00:39:21.490Z,9.60
2018-07-26T00:41:49.121Z,9.23
2018-07-26T00:44:16.770Z,9.80
2018-07-26T00:46:44.410Z,9.63
2018-07-26T00:49:12.310Z,10.20
2018-07-26T00:51:39.945Z,9.40
2018-07-26T00:54:07.701Z,9.10
2018-07-26T00:56:35.292Z,10.33
2018-07-26T00:59:02.921Z,10.70
2018-07-26T01:01:31.409Z,9.20
2018-07-26T01:03:59.425Z,9.23
2018-07-26T01:06:27.467Z,12.00
2018-07-26T01:08:55.109Z,8.80
2018-07-26T01:11:22.773Z,11.00
2018-07-26T01:13:50.441Z,10.63
2018-07-26T01:16:18.283Z,10.20
2018-07-26T01:18:45.936Z,12.10
2018-07-26T01:21:13.598Z,11.20
2018-07-26T01:23:41.368Z,9.97
2018-07-26T01:26:08.966Z,10.30
2018-07-26T01:28:36.615Z,10.67
2018-07-26T01:31:04.314Z,10.67
2018-07-26T01:33:32.247Z,9.10
2018-07-26T01:36:00.186Z,10.80
2018-07-26T01:38:28.719Z,9.93
2018-07-26T01:40:57.200Z,10.33
2018-07-26T01:43:47.372Z,9.27
2018-07-26T01:46:15.154Z,11.07
2018-07-26T01:48:44.565Z,11.13
2018-07-26T01:51:13.477Z,10.83
2018-07-26T01:53:41.995Z,11.60
2018-07-26T01:56:10.209Z,12.03
2018-07-26T01:58:38.242Z,11.87
2018-07-26T02:01:07.632Z,10.93
2018-07-26T02:03:35.414Z,10.43
2018-07-26T02:06:03.409Z,10.60
2018-07-26T02:08:31.244Z,12.40
2018-07-26T02:10:59.312Z,11.40
2018-07-26T02:13:26.965Z,12.23
2018-07-26T02:15:54.655Z,11.27
2018-07-26T02:18:22.661Z,10.37
2018-07-26T02:20:50.698Z,11.37
2018-07-26T02:23:18.306Z,12.07
2018-07-26T02:25:46.560Z,11.00
2018-07-26T02:28:14.209Z,10.00
2018-07-26T02:30:42.129Z,11.00
2018-07-26T02:33:09.855Z,11.30
2018-07-26T02:35:37.585Z,11.20
2018-07-26T02:38:05.329Z,9.10
2018-07-26T02:40:33.238Z,10.17
2018-07-26T02:43:01.613Z,10.90
2018-07-26T02:45:29.378Z,9.90
2018-07-26T02:47:57.046Z,11.90
2018-07-26T02:50:24.697Z,11.00
2018-07-26T02:52:52.574Z,9.77
2018-07-26T02:55:20.208Z,10.87
2018-07-26T02:57:48.250Z,10.23
2018-07-26T03:00:15.903Z,10.93
2018-07-26T03:02:43.605Z,9.50
2018-07-26T03:05:11.260Z,8.70
2018-07-26T03:07:38.873Z,11.60
2018-07-26T03:10:06.821Z,9.60
2018-07-26T03:12:34.777Z,10.50
2018-07-26T03:15:02.372Z,10.23
2018-07-26T03:17:30.020Z,9.97
2018-07-26T03:19:57.970Z,11.83
2018-07-26T03:22:25.818Z,9.63
2018-07-26T03:24:53.498Z,11.77
2018-07-26T03:27:21.517Z,11.87
2018-07-26T03:29:49.424Z,12.10
2018-07-26T03:32:17.048Z,10.57
2018-07-26T03:34:44.904Z,11.47
2018-07-26T03:37:12.581Z,11.80
2018-07-26T03:39:40.929Z,11.90
2018-07-26T03:42:08.565Z,10.57
2018-07-26T03:44:36.673Z,10.67
2018-07-26T03:47:04.605Z,10.07
2018-07-26T03:49:32.242Z,11.47
2018-07-26T03:52:00.333Z,8.93
2018-07-26T03:54:28.017Z,12.83
2018-07-26T03:56:55.829Z,11.90
2018-07-26T03:59:23.698Z,13.07
2018-07-26T04:01:51.367Z,10.47
2018-07-26T04:04:19.257Z,11.10
2018-07-26T04:06:47.233Z,11.97
2018-07-26T04:09:16.119Z,11.23
2018-07-26T04:11:44.886Z,10.13
2018-07-26T04:14:12.825Z,11.23
2018-07-26T04:16:40.437Z,10.60
2018-07-26T04:19:09.454Z,10.30
2018-07-26T04:21:37.825Z,13.20
2018-07-26T04:24:06.145Z,10.63
2018-07-26T04:26:34.023Z,10.30
2018-07-26T04:29:01.754Z,11.43
2018-07-26T04:31:29.631Z,11.20
2018-07-26T04:33:57.710Z,10.07
2018-07-26T04:36:25.390Z,8.83
2018-07-26T04:38:53.330Z,11.60
2018-07-26T04:41:21.678Z,8.50
2018-07-26T04:43:49.678Z,11.50
2018-07-26T04:46:17.294Z,9.63
2018-07-26T04:48:44.905Z,9.97
2018-07-26T04:51:13.089Z,11.03
2018-07-26T04:53:40.811Z,8.97
2018-07-26T04:56:08.448Z,11.17
2018-07-26T04:58:36.408Z,9.80
2018-07-26T05:01:04.311Z,10.07
2018-07-26T05:03:31.996Z,12.00
2018-07-26T05:06:00.259Z,9.77
2018-07-26T05:08:28.204Z,11.10
2018-07-26T05:10:55.828Z,11.80
2018-07-26T05:13:23.749Z,11.67
2018-07-26T05:15:51.347Z,9.13
2018-07-26T05:18:19.264Z,10.20
2018-07-26T05:20:47.437Z,10.50
2018-07-26T05:23:15.069Z,8.90
2018-07-26T05:25:42.669Z,11.63
2018-07-26T05:28:10.668Z,11.23
2018-07-26T05:30:38.578Z,10.10
2018-07-26T05:33:06.368Z,10.87
2018-07-26T05:35:34.022Z,9.20
2018-07-26T05:38:01.916Z,9.33
2018-07-26T05:40:29.574Z,8.97
2018-07-26T05:42:57.345Z,8.70
2018-07-26T05:45:25.015Z,10.50
2018-07-26T05:47:52.934Z,10.30
2018-07-26T05:50:20.943Z,10.10
2018-07-26T05:52:48.839Z,7.20
2018-07-26T05:55:16.717Z,7.50
2018-07-26T05:57:44.618Z,9.20
2018-07-26T06:00:13.419Z,8.93
2018-07-26T06:02:41.530Z,8.30
2018-07-26T06:05:09.607Z,8.67
2018-07-26T06:07:37.237Z,7.20
2018-07-26T06:10:05.933Z,9.40
2018-07-26T06:12:33.846Z,8.30
2018-07-26T06:15:01.470Z,8.93
2018-07-26T06:17:29.353Z,7.27
2018-07-26T06:19:56.970Z,6.73
2018-07-26T06:22:25.201Z,8.67
2018-07-26T06:24:53.134Z,7.63
2018-07-26T06:27:21.014Z,7.73
2018-07-26T06:29:48.660Z,8.73
2018-07-26T06:32:16.300Z,9.93
2018-07-26T06:34:43.962Z,6.80
2018-07-26T06:37:11.596Z,8.07
2018-07-26T06:39:39.236Z,7.87
2018-07-26T06:42:07.401Z,6.77
2018-07-26T06:44:35.036Z,7.47
2018-07-26T06:47:02.733Z,7.83
2018-07-26T06:49:30.603Z,8.43
2018-07-26T06:51:58.600Z,7.43
2018-07-26T06:54:26.238Z,9.50
2018-07-26T06:56:54.807Z,6.30
2018-07-26T06:59:22.712Z,7.60
2018-07-26T07:01:50.315Z,6.07
2018-07-26T07:04:18.080Z,8.17
2018-07-26T07:06:45.693Z,6.60
2018-07-26T07:09:13.364Z,6.00
2018-07-26T07:11:41.494Z,5.87
2018-07-26T07:14:09.190Z,5.63
2018-07-26T07:16:36.859Z,5.63
2018-07-26T07:19:04.954Z,5.67
2018-07-26T07:21:32.552Z,5.80
2018-07-26T07:24:00.457Z,5.07
2018-07-26T07:26:28.788Z,5.53
2018-07-26T07:28:57.000Z,4.83
2018-07-26T07:31:25.062Z,5.57
2018-07-26T07:33:52.720Z,5.70
2018-07-26T07:36:20.393Z,4.90
2018-07-26T07:38:48.104Z,4.70
2018-07-26T07:41:15.752Z,4.60
2018-07-26T07:43:43.738Z,5.00
2018-07-26T07:46:11.609Z,4.90
2018-07-26T07:48:39.267Z,4.57
2018-07-26T07:51:07.325Z,4.20
2018-07-26T07:53:34.969Z,4.63
2018-07-26T07:56:02.621Z,5.20
2018-07-26T07:58:30.309Z,4.83
2018-07-26T08:00:57.992Z,4.83
2018-07-26T08:03:26.096Z,4.43
2018-07-26T08:05:53.783Z,4.57
2018-07-26T08:08:21.583Z,4.80
2018-07-26T08:10:49.490Z,4.20
2018-07-26T08:13:17.284Z,4.37
2018-07-26T08:15:45.111Z,3.90
2018-07-26T08:18:12.717Z,5.00
2018-07-26T08:20:40.454Z,3.77
2018-07-26T08:23:08.125Z,3.90
2018-07-26T08:25:36.444Z,4.00
2018-07-26T08:28:04.254Z,3.70
2018-07-26T08:30:31.884Z,4.30
2018-07-26T08:32:59.589Z,3.70
2018-07-26T08:35:27.865Z,3.53
2018-07-26T08:37:55.514Z,3.50
2018-07-26T08:40:23.152Z,3.70
2018-07-26T08:42:50.810Z,3.40
2018-07-26T08:45:18.833Z,4.13
2018-07-26T08:47:46.489Z,3.50
2018-07-26T08:50:14.685Z,3.23
2018-07-26T08:52:42.344Z,3.20
2018-07-26T08:55:10.329Z,3.20
2018-07-26T08:57:38.214Z,3.27
2018-07-26T09:00:06.353Z,3.53
2018-07-26T09:02:34.296Z,3.17
2018-07-26T09:05:01.958Z,2.73
2018-07-26T09:07:29.646Z,2.93
2018-07-26T09:09:57.341Z,3.43
2018-07-26T09:12:24.981Z,2.50
2018-07-26T09:14:52.661Z,2.70
2018-07-26T09:17:20.695Z,2.90
2018-07-26T09:19:48.831Z,2.53
2018-07-26T09:22:16.645Z,3.10
2018-07-26T09:24:44.326Z,3.13
2018-07-26T09:27:13.356Z,2.90
2018-07-26T09:29:41.099Z,2.83
2018-07-26T09:32:08.874Z,2.93
2018-07-26T09:34:37.162Z,2.70
2018-07-26T09:37:04.828Z,2.70
2018-07-26T09:39:32.534Z,2.83
2018-07-26T09:42:00.703Z,2.50
2018-07-26T09:44:28.321Z,2.63
2018-07-26T09:46:56.096Z,2.80
2018-07-26T09:49:26.121Z,3.03
2018-07-26T09:51:53.757Z,2.70
2018-07-26T09:54:21.421Z,2.30
2018-07-26T09:56:49.656Z,2.80
2018-07-26T09:59:17.286Z,2.90
2018-07-26T10:01:45.222Z,2.80
2018-07-26T10:04:13.241Z,2.90
2018-07-26T10:06:40.879Z,2.30
2018-07-26T10:09:10.152Z,3.23
2018-07-26T10:11:37.945Z,2.90
2018-07-26T10:14:05.660Z,2.60
2018-07-26T10:16:33.958Z,2.70
2018-07-26T10:19:01.951Z,3.40
2018-07-26T10:21:29.661Z,2.83
2018-07-26T10:23:57.772Z,3.50
2018-07-26T10:26:25.816Z,3.30
2018-07-26T10:28:53.553Z,3.40
2018-07-26T10:31:21.597Z,3.40
2018-07-26T10:33:49.357Z,3.33
2018-07-26T10:36:17.374Z,3.23
2018-07-26T10:38:45.257Z,2.93
2018-07-26T10:41:13.130Z,3.50
2018-07-26T10:43:40.936Z,2.93
2018-07-26T10:46:08.655Z,3.70
2018-07-26T10:48:36.794Z,4.20
2018-07-26T10:51:05.037Z,3.47
2018-07-26T10:53:32.753Z,4.10
2018-07-26T10:56:00.514Z,4.20
2018-07-26T10:58:28.361Z,4.80
2018-07-26T11:00:56.274Z,4.40
2018-07-26T11:03:26.221Z,4.27
2018-07-26T11:05:54.226Z,5.23
2018-07-26T11:08:21.978Z,3.97
2018-07-26T11:10:49.780Z,4.30
2018-07-26T11:13:17.469Z,5.30
2018-07-26T11:15:45.105Z,4.10
2018-07-26T11:18:12.822Z,3.93
2018-07-26T11:20:40.511Z,4.50
2018-07-26T11:23:08.400Z,3.67
2018-07-26T11:25:36.408Z,4.10
2018-07-26T11:28:04.846Z,4.03
2018-07-26T11:30:32.789Z,3.60
2018-07-26T11:33:00.684Z,3.87
2018-07-26T11:35:28.756Z,3.53
2018-07-26T11:37:56.452Z,4.03
2018-07-26T11:40:24.508Z,4.13
2018-07-26T11:42:52.471Z,3.80
2018-07-26T11:45:20.665Z,4.40
2018-07-26T11:47:48.333Z,3.80
2018-07-26T11:50:16.220Z,3.20
2018-07-26T11:52:43.957Z,3.53
2018-07-26T11:55:11.593Z,3.90
2018-07-26T11:57:39.585Z,3.93
2018-07-26T12:00:08.076Z,3.60
2018-07-26T12:02:36.717Z,3.37
2018-07-26T12:05:04.897Z,3.70
2018-07-26T12:07:32.807Z,3.70
2018-07-26T12:10:00.701Z,3.27
2018-07-26T12:12:28.434Z,3.07
2018-07-26T12:14:56.370Z,3.30
2018-07-26T12:17:24.065Z,2.97
2018-07-26T12:19:51.755Z,3.27
2018-07-26T12:22:20.077Z,3.17
2018-07-26T12:24:47.868Z,3.70
2018-07-26T12:27:15.528Z,2.70
2018-07-26T12:29:43.554Z,3.30
2018-07-26T12:32:11.237Z,3.33
2018-07-26T12:34:38.913Z,3.13
2018-07-26T12:37:06.581Z,3.53
2018-07-26T12:39:35.082Z,3.17
2018-07-26T12:42:02.713Z,3.00
2018-07-26T12:44:30.788Z,3.30
2018-07-26T12:46:58.723Z,2.80
2018-07-26T12:49:26.660Z,2.90
2018-07-26T12:51:54.313Z,2.73
2018-07-26T12:54:22.032Z,3.10
2018-07-26T12:56:49.674Z,3.33
2018-07-26T12:59:17.279Z,4.00
2018-07-26T13:01:45.404Z,4.50
2018-07-26T13:04:13.077Z,4.63
2018-07-26T13:06:40.857Z,3.67
2018-07-26T13:09:09.694Z,3.70
2018-07-26T13:11:37.421Z,3.40
2018-07-26T13:14:05.845Z,3.70
2018-07-26T13:16:34.081Z,3.17
2018-07-26T13:19:02.438Z,3.13
2018-07-26T13:21:30.131Z,3.13
2018-07-26T13:23:58.205Z,3.80
2018-07-26T13:26:26.049Z,4.00
2018-07-26T13:28:53.993Z,3.63
2018-07-26T13:31:21.676Z,3.37
2018-07-26T13:33:49.621Z,3.50
2018-07-26T13:36:17.293Z,3.53
2018-07-26T13:38:45.189Z,3.63
2018-07-26T13:41:13.394Z,3.63
2018-07-26T13:43:41.294Z,3.60
2018-07-26T13:46:09.170Z,3.67
2018-07-26T13:48:36.855Z,3.43
2018-07-26T13:51:05.416Z,3.40
2018-07-26T13:53:33.126Z,3.67
2018-07-26T13:56:00.783Z,3.10
2018-07-26T13:58:28.512Z,3.20
2018-07-26T14:00:56.599Z,3.40
2018-07-26T14:03:24.527Z,3.30
2018-07-26T14:05:52.186Z,3.20
2018-07-26T14:08:19.845Z,2.83
2018-07-26T14:10:47.513Z,3.73
2018-07-26T14:13:15.169Z,3.10
2018-07-26T14:15:43.453Z,3.33
2018-07-26T14:18:11.101Z,3.70
2018-07-26T14:20:38.782Z,3.20
2018-07-26T14:23:06.981Z,3.47
2018-07-26T14:25:34.614Z,3.07
2018-07-26T14:28:02.244Z,4.13
2018-07-26T14:30:30.692Z,2.90
2018-07-26T14:32:58.664Z,2.80
2018-07-26T14:35:26.529Z,3.50
2018-07-26T14:37:54.461Z,3.77
2018-07-26T14:40:22.333Z,3.30
2018-07-26T14:42:50.576Z,3.00
2018-07-26T14:45:18.261Z,2.80
2018-07-26T14:47:45.934Z,2.57
2018-07-26T14:50:13.925Z,2.40
2018-07-26T14:52:41.722Z,3.30
2018-07-26T14:55:09.662Z,3.00
2018-07-26T14:57:37.351Z,3.10
2018-07-26T15:00:05.429Z,3.00
2018-07-26T15:02:33.081Z,3.10
2018-07-26T15:05:00.831Z,3.20
2018-07-26T15:07:28.534Z,2.70
2018-07-26T15:09:56.220Z,2.67
2018-07-26T15:12:23.881Z,2.53
2018-07-26T15:14:51.885Z,2.70
2018-07-26T15:17:19.594Z,3.87
2018-07-26T15:19:47.303Z,3.00
2018-07-26T15:22:14.983Z,3.17
2018-07-26T15:24:42.651Z,3.03
2018-07-26T15:27:10.981Z,3.07
2018-07-26T15:29:38.664Z,3.23
2018-07-26T15:32:06.901Z,3.30
2018-07-26T15:34:34.996Z,2.93
2018-07-26T15:37:02.628Z,3.20
2018-07-26T15:39:30.492Z,3.50
2018-07-26T15:41:58.521Z,3.23
2018-07-26T15:44:26.172Z,3.17
2018-07-26T15:46:53.840Z,4.07
2018-07-26T15:49:21.562Z,3.83
2018-07-26T15:51:49.545Z,3.57
2018-07-26T15:54:17.326Z,4.60
2018-07-26T15:56:45.010Z,3.97
2018-07-26T15:59:12.700Z,5.07
2018-07-26T16:01:40.677Z,3.90
2018-07-26T16:04:08.369Z,4.97
2018-07-26T16:06:36.247Z,3.80
2018-07-26T16:09:06.267Z,4.30
2018-07-26T16:11:34.357Z,4.30
2018-07-26T16:14:02.031Z,4.60
2018-07-26T16:16:29.705Z,3.73
2018-07-26T16:18:57.686Z,4.40
2018-07-26T16:21:25.357Z,4.30
2018-07-26T16:23:53.059Z,4.43
2018-07-26T16:26:21.095Z,5.33
2018-07-26T16:28:49.150Z,4.30
2018-07-26T16:31:17.259Z,4.23
2018-07-26T16:33:44.900Z,4.93
2018-07-26T16:36:12.833Z,4.80
2018-07-26T16:38:41.363Z,5.10
2018-07-26T16:41:09.197Z,4.93
2018-07-26T16:43:37.231Z,5.20
2018-07-26T16:46:05.145Z,5.20
2018-07-26T16:48:33.770Z,4.70
2018-07-26T16:51:01.620Z,4.80
2018-07-26T16:53:29.317Z,4.70
2018-07-26T16:55:56.976Z,5.53
2018-07-26T16:58:24.759Z,4.80
2018-07-26T17:00:52.365Z,6.37
2018-07-26T17:03:20.281Z,4.87
2018-07-26T17:05:47.949Z,4.00
2018-07-26T17:08:16.549Z,5.07
2018-07-26T17:10:44.274Z,5.43
2018-07-26T17:13:12.611Z,5.40
2018-07-26T17:15:40.392Z,5.10
2018-07-26T17:18:08.473Z,5.00
2018-07-26T17:20:36.769Z,4.83
2018-07-26T17:23:04.772Z,5.10
2018-07-26T17:25:32.737Z,5.30
2018-07-26T17:28:00.613Z,5.60
2018-07-26T17:30:28.584Z,4.37
2018-07-26T17:32:56.697Z,5.50
2018-07-26T17:35:24.574Z,5.47
2018-07-26T17:37:52.934Z,5.43
2018-07-26T17:40:20.875Z,4.70
2018-07-26T17:42:48.885Z,4.70
2018-07-26T17:45:16.788Z,4.47
2018-07-26T17:47:44.687Z,4.73
2018-07-26T17:50:12.870Z,4.90
2018-07-26T17:52:41.501Z,4.77
2018-07-26T17:55:09.485Z,4.87
2018-07-26T17:57:37.605Z,4.90
2018-07-26T18:00:07.993Z,5.00
2018-07-26T18:02:35.957Z,4.70
2018-07-26T18:05:04.093Z,4.57
2018-07-26T18:07:32.101Z,5.13
2018-07-26T18:10:00.128Z,5.13
2018-07-26T18:12:28.032Z,4.53
2018-07-26T18:14:55.683Z,4.80
2018-07-26T18:17:23.712Z,5.40
2018-07-26T18:19:51.726Z,5.70
2018-07-26T18:22:19.380Z,4.93
2018-07-26T18:24:47.315Z,5.60
2018-07-26T18:27:14.977Z,4.80
2018-07-26T18:29:43.242Z,4.57
2018-07-26T18:32:10.928Z,4.80
2018-07-26T18:34:38.618Z,4.37
2018-07-26T18:37:06.358Z,4.97
2018-07-26T18:39:35.710Z,5.10
2018-07-26T18:42:04.097Z,5.87
2018-07-26T18:44:32.188Z,6.30
2018-07-26T18:46:59.831Z,5.50
2018-07-26T18:49:28.068Z,5.00
2018-07-26T18:51:56.118Z,5.73
2018-07-26T18:54:23.752Z,4.50
2018-07-26T18:56:51.752Z,4.93
2018-07-26T18:59:19.858Z,4.80
2018-07-26T19:01:47.527Z,4.83
2018-07-26T19:04:15.692Z,4.47
2018-07-26T19:06:43.422Z,5.33
2018-07-26T19:09:12.191Z,4.73
2018-07-26T19:11:40.920Z,4.90
2018-07-26T19:14:08.588Z,4.73
2018-07-26T19:16:36.251Z,4.67
2018-07-26T19:19:04.055Z,4.73
2018-07-26T19:21:31.721Z,4.53
2018-07-26T19:23:59.377Z,5.40
2018-07-26T19:26:27.220Z,4.80
2018-07-26T19:28:54.912Z,4.77
2018-07-26T19:31:23.044Z,4.90
2018-07-26T19:33:52.324Z,4.80
2018-07-26T19:36:20.090Z,4.53
2018-07-26T19:38:47.671Z,4.50
2018-07-26T19:41:15.940Z,5.30
2018-07-26T19:43:43.949Z,4.90
2018-07-26T19:46:11.807Z,5.00
2018-07-26T19:48:39.507Z,5.00
2018-07-26T19:51:07.154Z,5.40
2018-07-26T19:53:34.811Z,5.00
2018-07-26T19:56:02.732Z,5.70
2018-07-26T19:58:30.869Z,5.47
2018-07-26T20:00:58.984Z,4.70
2018-07-26T20:03:26.805Z,4.70
2018-07-26T20:05:54.446Z,5.80
2018-07-26T20:08:22.087Z,4.80
2018-07-26T20:10:49.796Z,5.80
2018-07-26T20:13:17.954Z,4.93
2018-07-26T20:15:46.485Z,4.97
2018-07-26T20:18:14.874Z,5.20
2018-07-26T20:20:42.884Z,5.03
2018-07-26T20:23:10.554Z,5.17
2018-07-26T20:25:40.317Z,5.17
2018-07-26T20:28:08.644Z,5.93
2018-07-26T20:30:36.553Z,5.10
2018-07-26T20:33:04.294Z,5.50
2018-07-26T20:35:31.873Z,5.67
2018-07-26T20:37:59.571Z,6.17
2018-07-26T20:40:27.471Z,5.17
2018-07-26T20:42:55.321Z,5.20
2018-07-26T20:45:23.005Z,5.47
2018-07-26T20:47:50.676Z,5.43
2018-07-26T20:50:18.559Z,5.00
2018-07-26T20:52:46.287Z,5.20
2018-07-26T20:55:13.941Z,4.73
2018-07-26T20:57:41.605Z,5.53
2018-07-26T21:00:11.027Z,5.63
2018-07-26T21:02:38.708Z,5.13
2018-07-26T21:05:06.379Z,4.60
2018-07-26T21:07:34.657Z,6.10
2018-07-26T21:10:02.400Z,5.53
2018-07-26T21:12:30.689Z,5.13
2018-07-26T21:14:58.398Z,5.70
2018-07-26T21:17:26.060Z,5.70
2018-07-26T21:19:53.994Z,5.77
2018-07-26T21:22:21.602Z,5.43
2018-07-26T21:24:50.022Z,5.30
2018-07-26T21:27:17.990Z,5.50
2018-07-26T21:29:45.677Z,5.67
2018-07-26T21:32:13.350Z,5.47
2018-07-26T21:34:41.043Z,5.33
2018-07-26T21:37:08.716Z,5.77
2018-07-26T21:39:36.630Z,5.17
2018-07-26T21:42:04.709Z,5.67
2018-07-26T21:44:32.394Z,5.90
2018-07-26T21:47:00.052Z,6.07
2018-07-26T21:49:28.090Z,6.50
2018-07-26T21:51:55.955Z,5.83
2018-07-26T21:54:24.214Z,6.90
2018-07-26T21:56:52.162Z,6.30
2018-07-26T21:59:19.860Z,5.93
2018-07-26T22:01:47.592Z,6.17
2018-07-26T22:04:15.253Z,5.87
2018-07-26T22:06:43.736Z,5.60
2018-07-26T22:09:12.027Z,5.73
2018-07-26T22:11:40.287Z,6.60
2018-07-26T22:14:08.621Z,6.00
2018-07-26T22:16:36.621Z,6.67
2018-07-26T22:19:04.516Z,5.90
2018-07-26T22:21:32.262Z,6.07
2018-07-26T22:24:00.787Z,6.83
2018-07-26T22:26:28.434Z,6.23
2018-07-26T22:28:56.367Z,5.90
2018-07-26T22:31:24.350Z,6.60
2018-07-26T22:33:52.638Z,6.10
2018-07-26T22:36:20.308Z,6.30
2018-07-26T22:38:48.780Z,6.53
2018-07-26T22:41:16.382Z,5.37
2018-07-26T22:43:44.096Z,7.10
2018-07-26T22:46:12.035Z,6.10
2018-07-26T22:48:40.258Z,7.20
2018-07-26T22:51:07.970Z,6.57
2018-07-26T22:53:35.665Z,7.27
2018-07-26T22:56:03.311Z,7.30
2018-07-26T22:58:30.957Z,6.57
2018-07-26T23:00:58.653Z,6.90
2018-07-26T23:03:26.393Z,6.53
2018-07-26T23:05:54.232Z,6.90
2018-07-26T23:08:22.249Z,6.30
2018-07-26T23:10:49.899Z,6.77
2018-07-26T23:13:17.932Z,6.27
2018-07-26T23:15:45.617Z,6.20
2018-07-26T23:18:13.602Z,6.37
2018-07-26T23:20:41.381Z,6.20
2018-07-26T23:23:12.593Z,6.47
2018-07-26T23:25:42.514Z,7.50
2018-07-26T23:28:10.524Z,6.37
2018-07-26T23:30:38.168Z,8.30
2018-07-26T23:33:06.141Z,6.53
2018-07-26T23:35:34.117Z,7.30
2018-07-26T23:38:01.755Z,7.53
2018-07-26T23:40:29.428Z,6.50
2018-07-26T23:42:57.407Z,6.83
2018-07-26T23:45:25.413Z,7.03
2018-07-26T23:47:53.056Z,6.20
2018-07-26T23:50:20.796Z,7.03
2018-07-26T23:52:49.052Z,6.77
2018-07-26T23:55:16.910Z,6.57
2018-07-26T23:57:45.161Z,6.37
